M I D A S
Marine Information and Data Acquisition System
Tripno 2124 of the Zeeleeuw from 2011-06-20 06:51:14 to 2011-06-20 15:03:38
Back to CruiseResearch ActivitiesStationsMapUnderway DataData graphs

EquipmentUnitsComment
TimeDGPSUTC
LatitudeDGPSDM.mWGS84
LongitudeDGPSDM.mWGS84
HeadingGyrodeg 
SOGDGPSknotsSpeed over ground
COGDGPSdegCourse over ground
DepthEcho soundermeters200 kHz
Missing or incorrect values are displayed as -999
Navigation data collected by the RV Zeeleeuw from 2011-06-20 06:51:25 to 2011-06-20 15:51:21
Time Latitude Longitude Heading SOG COG Depth
2011-06-20 06:52:32 51°13.66 2°55.926 114 5.1 294 -999
2011-06-20 06:53:32 51°13.687 2°55.814 105.8 3.7 288 11.2
2011-06-20 06:54:32 51°13.696 2°55.737 79.8 1 284 12.7
2011-06-20 06:55:30 51°13.71 2°55.741 20.7 1.3 10 12.6
2011-06-20 06:56:32 51°13.703 2°55.739 349.6 0.6 333 -999
2011-06-20 06:57:32 51°13.778 2°55.676 334.1 8.4 333 11.5
2011-06-20 06:58:32 51°13.929 2°55.56 336.1 10.9 336 11.2
2011-06-20 06:59:32 51°14.097 2°55.434 337.6 11.4 334 11.1
2011-06-20 07:00:31 51°14.263 2°55.296 332.6 11.6 331 11
2011-06-20 07:01:28 51°14.424 2°55.144 331.1 11.8 328 10.9
2011-06-20 07:02:29 51°14.592 2°54.957 325.9 12.6 320 12.3
2011-06-20 07:03:29 51°14.766 2°54.752 328.6 13.2 324 12.6
2011-06-20 07:04:29 51°14.947 2°54.552 329.5 13.1 326 12.6
2011-06-20 07:05:29 51°15.131 2°54.361 337.1 13.2 335 12.1
2011-06-20 07:06:29 51°15.342 2°54.301 1.1 13 358 9.6
2011-06-20 07:07:28 51°15.554 2°54.304 3 12.9 358 10.2
2011-06-20 07:08:28 51°15.769 2°54.296 3.6 12.9 358 10.4
2011-06-20 07:09:29 51°15.98 2°54.267 0.5 11.1 357 11
2011-06-20 07:10:28 51°16.115 2°54.289 17.6 6.4 11 11.5
2011-06-20 07:11:28 51°16.198 2°54.31 12.8 4.1 4 11.6
2011-06-20 07:12:28 51°16.249 2°54.304 355.7 1.9 336 11.5
2011-06-20 07:13:28 51°16.254 2°54.289 333.5 0.4 231 11.4
2011-06-20 07:14:29 51°16.251 2°54.28 342.2 0.5 250 4.9
2011-06-20 07:15:29 51°16.248 2°54.266 348.1 0.5 261 11.5
2011-06-20 07:16:29 51°16.248 2°54.254 354.4 0.6 268 11.4
2011-06-20 07:17:29 51°16.25 2°54.238 2.9 0.6 280 11.4
2011-06-20 07:18:29 51°16.251 2°54.223 13.7 0.6 284 11.3
2011-06-20 07:19:29 51°16.254 2°54.209 27.8 0.6 289 11.4
2011-06-20 07:20:29 51°16.257 2°54.197 42.8 0.5 284 11.1
2011-06-20 07:21:29 51°16.259 2°54.182 52.3 0.5 284 11.4
2011-06-20 07:22:28 51°16.263 2°54.171 54.8 0.9 19 11.3
2011-06-20 07:23:28 51°16.318 2°54.176 352 5.5 338 11.5
2011-06-20 07:24:29 51°16.42 2°54.043 325.3 9.9 321 11.6
2011-06-20 07:25:29 51°16.56 2°53.865 327.8 11.5 321 11.5
2011-06-20 07:26:29 51°16.709 2°53.629 315.8 13.2 311 11.6
2011-06-20 07:27:29 51°16.856 2°53.367 318.5 13.2 315 10.9
2011-06-20 07:28:29 51°16.992 2°53.108 306.3 13 302 8.7
2011-06-20 07:29:29 51°17.11 2°52.813 307.4 13.4 305 10.3
2011-06-20 07:30:29 51°17.254 2°52.549 317.6 13.2 312 10.2
2011-06-20 07:31:29 51°17.408 2°52.302 322.7 13.1 319 10.5
2011-06-20 07:32:29 51°17.581 2°52.089 325.5 13 320 11.1
2011-06-20 07:33:29 51°17.745 2°51.861 326 13 323 10
2011-06-20 07:34:29 51°17.916 2°51.643 322.3 13.1 317 10
2011-06-20 07:35:29 51°18.082 2°51.409 326.7 13.3 322 11.2
2011-06-20 07:36:29 51°18.252 2°51.196 326.6 12.3 322 12.8
2011-06-20 07:37:29 51°18.401 2°51.017 325.8 10.1 320 13.6
2011-06-20 07:38:29 51°18.505 2°50.957 21.4 4.3 16 14.1
2011-06-20 07:39:29 51°18.534 2°50.968 61.8 0.6 294 14.2
2011-06-20 07:40:29 51°18.538 2°50.951 66.8 0.6 281 14.4
2011-06-20 07:41:29 51°18.542 2°50.933 62.2 0.7 288 14.3
2011-06-20 07:42:29 51°18.546 2°50.916 58.4 0.6 286 14.3
2011-06-20 07:43:29 51°18.55 2°50.898 56.9 0.6 287 14.4
2011-06-20 07:44:29 51°18.554 2°50.88 58.1 0.7 292 14.4
2011-06-20 07:45:29 51°18.577 2°50.944 72.5 7 67 14.1
2011-06-20 07:46:29 51°18.64 2°51.193 71.3 11.9 68 13.8
2011-06-20 07:47:29 51°18.71 2°51.493 74.1 12.2 72 14.1
2011-06-20 07:48:28 51°18.765 2°51.796 77.7 12.1 76 13.2
2011-06-20 07:49:29 51°18.821 2°52.109 74.1 12 70 13
2011-06-20 07:50:28 51°18.879 2°52.408 77.8 12 76 12.4
2011-06-20 07:51:28 51°18.934 2°52.714 76.4 11.9 74 12.2
2011-06-20 07:52:28 51°18.984 2°53.02 77.4 11.9 74 11.8
2011-06-20 07:53:28 51°19.046 2°53.32 74.2 11.9 70 11.6
2011-06-20 07:54:28 51°19.104 2°53.624 78.1 11.9 75 11.7
2011-06-20 07:55:29 51°19.159 2°53.932 75.4 11.9 73 11.8
2011-06-20 07:56:29 51°19.216 2°54.233 76.8 11.9 76 12
2011-06-20 07:57:28 51°19.262 2°54.533 77.4 11.9 76 11.8
2011-06-20 07:58:28 51°19.32 2°54.832 73.6 11.6 70 11.5
2011-06-20 07:59:29 51°19.378 2°55.136 77.5 11.8 75 11.5
2011-06-20 08:00:29 51°19.425 2°55.442 77.4 11.9 77 11.5
2011-06-20 08:01:28 51°19.484 2°55.734 71.2 11.8 69 11.5
2011-06-20 08:02:29 51°19.547 2°56.035 76.3 11.8 75 11.2
2011-06-20 08:03:28 51°19.603 2°56.328 72.6 11.8 69 11
2011-06-20 08:04:28 51°19.674 2°56.619 73.3 11.7 72 11.1
2011-06-20 08:05:28 51°19.727 2°56.92 75.4 11.8 73 10.8
2011-06-20 08:06:29 51°19.796 2°57.22 74.1 11.8 71 10.7
2011-06-20 08:07:28 51°19.852 2°57.515 74.1 11.8 69 10.7
2011-06-20 08:08:29 51°19.925 2°57.812 73 11.8 72 10.9
2011-06-20 08:09:28 51°19.979 2°58.107 75.9 11.7 72 10.6
2011-06-20 08:10:29 51°20.049 2°58.404 72 11.9 69 10.2
2011-06-20 08:11:29 51°20.106 2°58.703 74.9 11.6 72 10.3
2011-06-20 08:12:29 51°20.17 2°58.996 75.2 11.7 74 10.1
2011-06-20 08:13:29 51°20.225 2°59.292 73.3 11.5 69 9.8
2011-06-20 08:14:29 51°20.297 2°59.577 72.9 11.7 71 10.1
2011-06-20 08:15:29 51°20.351 2°59.871 75 11.4 72 9.7
2011-06-20 08:16:29 51°20.404 3°0.164 78 11.3 77 9.6
2011-06-20 08:17:28 51°20.466 3°0.443 70.4 11.4 68 9.6
2011-06-20 08:18:28 51°20.528 3°0.73 76.6 11.5 74 9.7
2011-06-20 08:19:28 51°20.579 3°1.019 76.7 11.2 73 9.4
2011-06-20 08:20:28 51°20.642 3°1.3 70.9 11.3 68 9.2
2011-06-20 08:21:29 51°20.705 3°1.587 74.7 11.1 72 9.2
2011-06-20 08:22:29 51°20.771 3°1.869 76 11.3 72 9.5
2011-06-20 08:23:28 51°20.822 3°2.151 73.5 11.3 72 9.6
2011-06-20 08:24:29 51°20.889 3°2.436 71.8 11.3 69 9.8
2011-06-20 08:25:28 51°20.95 3°2.712 76.5 11.2 74 9
2011-06-20 08:26:29 51°21.007 3°2.997 70.9 11.1 69 9.9
2011-06-20 08:27:28 51°21.061 3°3.274 75.8 11.1 73 10
2011-06-20 08:28:29 51°21.136 3°3.547 67.5 11.1 65 10
2011-06-20 08:29:28 51°21.21 3°3.812 72.5 11 71 9.9
2011-06-20 08:30:29 51°21.288 3°4.083 67.4 10.9 63 10.2
2011-06-20 08:31:28 51°21.354 3°4.347 73.2 11 70 10.2
2011-06-20 08:32:29 51°21.433 3°4.611 68.1 10.7 64 10
2011-06-20 08:33:28 51°21.5 3°4.868 73.8 10.7 69 10.2
2011-06-20 08:34:28 51°21.568 3°5.129 73.9 10.8 72 10.4
2011-06-20 08:35:29 51°21.629 3°5.399 72 10.6 68 10.3
2011-06-20 08:36:28 51°21.684 3°5.661 77 10.6 76 10.5
2011-06-20 08:37:28 51°21.747 3°5.923 74.5 10.6 72 10.5
2011-06-20 08:38:29 51°21.802 3°6.194 73.4 10.5 69 10.9
2011-06-20 08:39:29 51°21.866 3°6.455 74.2 10.5 71 10.9
2011-06-20 08:40:28 51°21.917 3°6.72 76.2 10.7 72 11
2011-06-20 08:41:29 51°21.973 3°6.993 80.2 10.6 80 11.2
2011-06-20 08:42:28 51°21.969 3°7.271 91.8 10.7 94 11.2
2011-06-20 08:43:28 51°21.983 3°7.553 82.6 10.7 82 11.1
2011-06-20 08:44:29 51°21.995 3°7.839 86.8 10.6 88 11.1
2011-06-20 08:45:29 51°22.02 3°8.115 79.3 10.4 76 11.1
2011-06-20 08:46:29 51°22.047 3°8.391 80.5 10.4 80 11.2
2011-06-20 08:47:29 51°22.077 3°8.665 82.1 10.5 83 11.4
2011-06-20 08:48:29 51°22.12 3°8.935 76.4 10.4 76 11.3
2011-06-20 08:49:29 51°22.162 3°9.204 79.6 10.5 78 11.6
2011-06-20 08:50:29 51°22.206 3°9.473 77 10.5 75 12.4
2011-06-20 08:51:29 51°22.251 3°9.743 79.2 10.5 78 12.7
2011-06-20 08:52:29 51°22.272 3°10.019 84.5 10.5 83 13.4
2011-06-20 08:53:29 51°22.305 3°10.293 81.4 10 81 14
2011-06-20 08:54:29 51°22.325 3°10.507 82 7.2 81 18.1
2011-06-20 08:55:29 51°22.353 3°10.672 79.2 5.5 74 18.5
2011-06-20 08:56:28 51°22.372 3°10.8 83.9 4.8 80 15.7
2011-06-20 08:57:29 51°22.386 3°10.923 83.4 4.6 81 15.3
2011-06-20 08:58:29 51°22.402 3°11.045 82 5.6 77 14.8
2011-06-20 08:59:29 51°22.431 3°11.204 78.4 6.6 73 14.9
2011-06-20 09:00:29 51°22.46 3°11.375 81.2 6.7 74 14.9
2011-06-20 09:01:29 51°22.483 3°11.544 82.4 5.1 80 14.6
2011-06-20 09:02:29 51°22.476 3°11.603 119.7 1.3 196 14.7
2011-06-20 09:03:29 51°22.467 3°11.563 153.9 1.9 263 15
2011-06-20 09:04:29 51°22.464 3°11.512 152.9 2 263 14.9
2011-06-20 09:05:29 51°22.459 3°11.459 150.9 2 263 14.9
2011-06-20 09:06:29 51°22.455 3°11.406 148.3 2 264 14.9
2011-06-20 09:07:29 51°22.452 3°11.353 146 2 266 15.1
2011-06-20 09:08:29 51°22.449 3°11.3 144.8 2 266 15.2
2011-06-20 09:09:29 51°22.443 3°11.251 137.5 1.5 231 15
2011-06-20 09:10:29 51°22.434 3°11.253 80.3 1.6 76 15
2011-06-20 09:11:29 51°22.453 3°11.389 82.5 7.1 80 14.9
2011-06-20 09:12:29 51°22.473 3°11.624 86.5 9.6 84 14.6
2011-06-20 09:13:29 51°22.485 3°11.883 86.2 10 86 14.4
2011-06-20 09:14:29 51°22.5 3°12.146 83.2 10.1 82 13.7
2011-06-20 09:15:29 51°22.53 3°12.407 82.8 9.9 81 13.1
2011-06-20 09:16:29 51°22.547 3°12.671 86.9 10 86 12.6
2011-06-20 09:17:29 51°22.585 3°12.93 76 10 75 11.8
2011-06-20 09:18:29 51°22.63 3°13.179 79.1 8 76 11.2
2011-06-20 09:19:29 51°22.62 3°13.276 118.7 1.9 153 11.1
2011-06-20 09:20:29 51°22.599 3°13.258 158.8 1.6 251 11.2
2011-06-20 09:21:29 51°22.598 3°13.211 170.1 1.8 270 11.1
2011-06-20 09:22:29 51°22.598 3°13.164 164.2 1.7 269 11.4
2011-06-20 09:23:29 51°22.598 3°13.117 162.2 1.8 269 11.5
2011-06-20 09:24:29 51°22.597 3°13.07 162.9 1.7 270 11.6
2011-06-20 09:25:29 51°22.597 3°13.025 161.7 1.7 271 11.7
2011-06-20 09:26:29 51°22.598 3°12.979 161.4 1.8 270 11.7
2011-06-20 09:27:29 51°22.589 3°12.945 136.2 1.2 213 12
2011-06-20 09:28:29 51°22.585 3°12.953 72.6 1.3 38 11.9
2011-06-20 09:29:29 51°22.65 3°12.979 29.1 8.1 15 11.5
2011-06-20 09:30:29 51°22.814 3°13.045 19.7 11.6 8 10.7
2011-06-20 09:31:30 51°23.021 3°13.041 5.4 12.4 354 9.9
2011-06-20 09:32:30 51°23.226 3°13.014 3.8 12.3 352 10.3
2011-06-20 09:33:29 51°23.424 3°12.93 358.1 12.3 348 9.6
2011-06-20 09:34:30 51°23.63 3°12.876 0.5 12.3 348 10.4
2011-06-20 09:35:29 51°23.828 3°12.804 359.4 12.4 349 10.6
2011-06-20 09:36:29 51°24.032 3°12.737 357.3 12.7 349 12.8
2011-06-20 09:37:29 51°24.239 3°12.657 358 12.8 347 16.7
2011-06-20 09:38:29 51°24.447 3°12.585 2 12.7 350 17.4
2011-06-20 09:39:29 51°24.65 3°12.478 344.8 13.2 331 14.2
2011-06-20 09:40:29 51°24.824 3°12.254 318.8 13.7 308 12.2
2011-06-20 09:41:29 51°24.948 3°11.946 308.4 13.8 302 10.7
2011-06-20 09:42:29 51°25.045 3°11.616 294.3 13.8 289 9.5
2011-06-20 09:43:30 51°25.094 3°11.255 274.5 13.9 268 8.9
2011-06-20 09:44:29 51°25.059 3°10.894 261.1 13.9 258 8.6
2011-06-20 09:45:29 51°24.987 3°10.541 252.4 14 250 8.2
2011-06-20 09:46:28 51°24.907 3°10.2 245 13.9 244 7.9
2011-06-20 09:47:30 51°24.81 3°9.848 253.5 14.1 255 7.9
2011-06-20 09:48:29 51°24.776 3°9.489 265.9 13.8 262 5.9
2011-06-20 09:49:29 51°24.741 3°9.126 263.3 13.9 259 8.2
2011-06-20 09:50:29 51°24.698 3°8.763 261.6 13.9 258 8.8
2011-06-20 09:51:28 51°24.636 3°8.415 258.8 13.8 257 9.5
2011-06-20 09:52:30 51°24.623 3°8.045 275.4 13.3 270 9.7
2011-06-20 09:53:28 51°24.621 3°7.701 276.5 13.3 273 10.2
2011-06-20 09:54:30 51°24.696 3°7.371 310.7 12.7 307 10.3
2011-06-20 09:55:28 51°24.849 3°7.171 339.8 12.2 334 9.7
2011-06-20 09:56:30 51°25.047 3°7.095 358 11.8 352 9
2011-06-20 09:57:28 51°25.236 3°7.067 358.2 11.8 351 9
2011-06-20 09:58:30 51°25.436 3°7.045 10.2 11.7 6 9.4
2011-06-20 09:59:30 51°25.622 3°7.115 22.8 11.5 19 9.3
2011-06-20 10:00:28 51°25.773 3°7.279 46.2 11.4 49 9.1
2011-06-20 10:01:30 51°25.905 3°7.511 46.5 11.3 44 8.8
2011-06-20 10:02:28 51°26.045 3°7.693 41.5 11.4 39 8.4
2011-06-20 10:03:30 51°26.184 3°7.913 47.7 11.3 46 8.5
2011-06-20 10:04:28 51°26.323 3°8.101 40 11 37 8.9
2011-06-20 10:05:30 51°26.433 3°8.256 46.5 5.7 49 9.6
2011-06-20 10:06:28 51°26.446 3°8.317 84.2 1 148 9.7
2011-06-20 10:07:28 51°26.43 3°8.305 114.6 1.2 211 9.7
2011-06-20 10:08:29 51°26.413 3°8.289 119.9 1.1 213 9.7
2011-06-20 10:09:29 51°26.398 3°8.273 120.6 1.2 215 5
2011-06-20 10:10:30 51°26.383 3°8.255 117.4 1.1 218 9.5
2011-06-20 10:11:28 51°26.37 3°8.236 111.5 1.2 220 9.7
2011-06-20 10:12:30 51°26.355 3°8.221 97.9 0.9 162 9.4
2011-06-20 10:13:28 51°26.36 3°8.251 35.2 2.2 24 9.7
2011-06-20 10:14:30 51°26.402 3°8.208 319.2 4.2 292 9.4
2011-06-20 10:15:28 51°26.388 3°8.06 262 9 254 9.3
2011-06-20 10:16:28 51°26.346 3°7.761 268.6 13 262 8.9
2011-06-20 10:17:30 51°26.349 3°7.394 282.1 13.8 274 9.4
2011-06-20 10:18:28 51°26.414 3°7.065 310.1 13.1 303 10.1
2011-06-20 10:19:30 51°26.56 3°6.799 324 12.7 315 11.1
2011-06-20 10:20:28 51°26.697 3°6.554 320.2 12.8 311 11.1
2011-06-20 10:21:30 51°26.837 3°6.274 316.1 13.1 306 11.5
2011-06-20 10:22:28 51°26.967 3°6.01 320.7 13 311 11.7
2011-06-20 10:23:28 51°27.107 3°5.746 318.7 13.1 309 12.8
2011-06-20 10:24:30 51°27.254 3°5.476 319.4 13.1 311 13.6
2011-06-20 10:25:28 51°27.38 3°5.205 313.9 13.1 305 13.9
2011-06-20 10:26:30 51°27.521 3°4.927 319.4 12.9 311 13.5
2011-06-20 10:27:28 51°27.648 3°4.66 314.3 13.1 305 13
2011-06-20 10:28:30 51°27.788 3°4.378 319.4 13 310 15
2011-06-20 10:29:28 51°27.935 3°4.139 326.9 13 318 17.1
2011-06-20 10:30:30 51°28.102 3°3.897 326.8 13.2 317 18.9
2011-06-20 10:31:28 51°28.266 3°3.691 335.3 12.5 326 20.5
2011-06-20 10:32:30 51°28.345 3°3.531 296.1 5.1 279 21.9
2011-06-20 10:33:30 51°28.332 3°3.436 254.2 2.7 241 22.2
2011-06-20 10:34:28 51°28.312 3°3.386 236.9 2.1 237 22.2
2011-06-20 10:35:30 51°28.292 3°3.34 226.1 2 233 22.5
2011-06-20 10:36:28 51°28.272 3°3.3 217.9 1.9 230 22.4
2011-06-20 10:37:30 51°28.253 3°3.26 213.7 1.8 233 22.1
2011-06-20 10:38:28 51°28.235 3°3.222 211.7 1.9 234 21.9
2011-06-20 10:39:30 51°28.213 3°3.179 212 3 226 22.3
2011-06-20 10:40:28 51°28.167 3°3.093 240 5.3 238 22.2
2011-06-20 10:41:28 51°28.11 3°2.9 252.2 10.6 248 22.2
2011-06-20 10:42:30 51°28.03 3°2.572 252.5 14.3 249 22.5
2011-06-20 10:43:28 51°27.947 3°2.224 252.8 14.5 250 22.7
2011-06-20 10:44:30 51°27.861 3°1.851 254.1 14.5 250 22.5
2011-06-20 10:45:28 51°27.788 3°1.492 258.8 14.7 253 20.9
2011-06-20 10:46:30 51°27.712 3°1.104 257.1 14.7 252 23
2011-06-20 10:47:28 51°27.636 3°0.741 254.5 14.9 249 23.3
2011-06-20 10:48:28 51°27.55 3°0.369 256.5 14.8 254 21.7
2011-06-20 10:49:29 51°27.503 2°59.982 267.6 14.6 261 21.1
2011-06-20 10:50:28 51°27.459 2°59.605 264.1 14.6 258 20
2011-06-20 10:51:30 51°27.413 2°59.213 264.3 14.4 258 19.7
2011-06-20 10:52:29 51°27.36 2°58.844 262.2 14.5 257 16.9
2011-06-20 10:53:30 51°27.314 2°58.459 266.2 14.4 260 17.5
2011-06-20 10:54:28 51°27.275 2°58.093 263.6 14.5 257 18.1
2011-06-20 10:55:28 51°27.221 2°57.718 262.3 14.4 257 20.6
2011-06-20 10:56:29 51°27.171 2°57.334 264.2 14.5 260 24.1
2011-06-20 10:57:28 51°27.127 2°56.959 265.4 14.6 261 23.1
2011-06-20 10:58:29 51°27.083 2°56.568 264 14.8 259 19.9
2011-06-20 10:59:28 51°27.027 2°56.189 262.8 14.9 257 27.9
2011-06-20 11:00:29 51°26.975 2°55.794 264.7 14.9 258 29.2
2011-06-20 11:01:28 51°26.928 2°55.409 266.3 15 260 27.8
2011-06-20 11:02:30 51°26.876 2°55 264.7 15.2 258 26.3
2011-06-20 11:03:29 51°26.831 2°54.61 264.7 15.1 258 25.6
2011-06-20 11:04:28 51°26.777 2°54.221 263.1 15.2 257 26.6
2011-06-20 11:05:29 51°26.726 2°53.822 263.5 15 259 30.6
2011-06-20 11:06:29 51°26.68 2°53.435 265.8 14.6 261 30.5
2011-06-20 11:07:29 51°26.64 2°53.052 264 14.7 259 30
2011-06-20 11:08:29 51°26.595 2°52.668 265.7 14.6 259 28.2
2011-06-20 11:09:29 51°26.548 2°52.282 262.7 14.9 258 26.6
2011-06-20 11:10:29 51°26.504 2°51.894 265.3 14.8 261 25.4
2011-06-20 11:11:29 51°26.464 2°51.504 265.1 14.8 261 26
2011-06-20 11:12:29 51°26.42 2°51.115 262.1 14.7 258 25
2011-06-20 11:13:29 51°26.373 2°50.728 266.1 14.8 261 23.4
2011-06-20 11:14:29 51°26.332 2°50.339 262.7 14.8 260 23.4
2011-06-20 11:15:28 51°26.282 2°49.963 263.7 14.6 260 23.1
2011-06-20 11:16:29 51°26.245 2°49.576 266.7 14.4 262 23.2
2011-06-20 11:17:28 51°26.201 2°49.206 261.6 14.4 258 23.4
2011-06-20 11:18:29 51°26.164 2°48.89 270.7 8.6 262 23.5
2011-06-20 11:19:28 51°26.135 2°48.72 241.2 5.9 233 24.5
2011-06-20 11:20:29 51°26.061 2°48.652 172.7 4.1 192 22.7
2011-06-20 11:21:29 51°26.012 2°48.633 156 2.1 205 24.1
2011-06-20 11:22:29 51°25.987 2°48.606 151.4 1.8 214 24.1
2011-06-20 11:23:29 51°25.962 2°48.581 143.4 1.7 213 24.1
2011-06-20 11:24:29 51°25.939 2°48.554 136.5 1.7 219 24.1
2011-06-20 11:25:29 51°25.919 2°48.526 131.4 1.6 223 23.8
2011-06-20 11:26:29 51°25.9 2°48.496 129.3 1.6 229 23.9
2011-06-20 11:27:29 51°25.883 2°48.463 126.6 1.5 232 23.5
2011-06-20 11:28:29 51°25.84 2°48.478 136.6 5.9 152 23.7
2011-06-20 11:29:29 51°25.716 2°48.564 148.9 9.4 161 24.2
2011-06-20 11:30:29 51°25.548 2°48.636 156.8 11 166 24.4
2011-06-20 11:31:29 51°25.369 2°48.705 157.5 11.1 166 27.9
2011-06-20 11:32:29 51°25.194 2°48.738 174.8 9 187 26.6
2011-06-20 11:33:29 51°25.089 2°48.661 211.2 5.7 219 26.4
2011-06-20 11:34:29 51°25.037 2°48.572 236 3.6 235 26.6
2011-06-20 11:35:28 51°25.012 2°48.508 258.8 2.5 240 27.3
2011-06-20 11:36:29 51°24.993 2°48.452 272.3 2.3 244 26.1
2011-06-20 11:37:29 51°24.975 2°48.401 280.3 2.1 239 27
2011-06-20 11:38:30 51°24.957 2°48.356 283.9 1.8 237 27.5
2011-06-20 11:39:28 51°24.94 2°48.318 285.3 1.8 234 27.3
2011-06-20 11:40:30 51°24.921 2°48.281 287.7 1.7 232 27.6
2011-06-20 11:41:28 51°24.903 2°48.249 292.5 1.6 223 27.6
2011-06-20 11:42:30 51°24.885 2°48.211 294 2.4 249 28.2
2011-06-20 11:43:28 51°24.861 2°48.122 239.1 6 237 28.6
2011-06-20 11:44:28 51°24.745 2°47.93 218 12.6 220 28.6
2011-06-20 11:45:28 51°24.594 2°47.666 234.3 14.4 235 28.8
2011-06-20 11:46:29 51°24.459 2°47.337 236.1 14.5 235 29.9
2011-06-20 11:47:29 51°24.342 2°46.998 246.8 14.6 244 30.1
2011-06-20 11:48:29 51°24.243 2°46.644 249.5 14.6 245 28.5
2011-06-20 11:49:29 51°24.148 2°46.286 249.7 14.7 247 27.4
2011-06-20 11:50:29 51°24.06 2°45.925 252.6 14.6 250 27.4
2011-06-20 11:51:29 51°23.971 2°45.568 249.8 14.6 246 27.3
2011-06-20 11:52:29 51°23.873 2°45.212 247.9 14.6 248 26.8
2011-06-20 11:53:29 51°23.785 2°44.853 251.1 14.4 248 27.1
2011-06-20 11:54:29 51°23.691 2°44.498 249 14.5 246 27
2011-06-20 11:55:29 51°23.598 2°44.142 249.8 14.4 247 26.8
2011-06-20 11:56:29 51°23.512 2°43.784 255.4 14.3 252 27
2011-06-20 11:57:29 51°23.444 2°43.421 255 14.2 253 26.6
2011-06-20 11:58:29 51°23.368 2°43.059 254.4 14.3 252 25.1
2011-06-20 11:59:29 51°23.313 2°42.691 262.1 14.2 259 25.8
2011-06-20 12:00:29 51°23.261 2°42.324 260.3 14 258 27.4
2011-06-20 12:01:29 51°23.202 2°41.96 259.1 14.1 254 26.3
2011-06-20 12:02:29 51°23.136 2°41.597 257 14.1 253 28.3
2011-06-20 12:03:29 51°23.084 2°41.23 262 14 259 28.7
2011-06-20 12:04:29 51°23.029 2°40.866 258.6 14.1 255 29.4
2011-06-20 12:05:29 51°22.946 2°40.524 233.7 13.4 227 29.5
2011-06-20 12:06:29 51°22.739 2°40.411 178 13.7 181 29.7
2011-06-20 12:07:29 51°22.513 2°40.424 171.7 13.6 179 29.9
2011-06-20 12:08:29 51°22.285 2°40.443 172.1 13.7 177 29.3
2011-06-20 12:09:29 51°22.055 2°40.439 179.9 13.9 185 28.6
2011-06-20 12:10:29 51°21.824 2°40.405 180.9 13.9 184 28.3
2011-06-20 12:11:29 51°21.594 2°40.363 184.1 14.1 192 28.8
2011-06-20 12:12:29 51°21.369 2°40.263 195.4 13.9 196 27.3
2011-06-20 12:13:29 51°21.168 2°40.073 223.4 14.1 223 26.9
2011-06-20 12:14:29 51°21.045 2°39.757 248 14.1 247 26.9
2011-06-20 12:15:29 51°20.976 2°39.401 258 14.1 254 26.2
2011-06-20 12:16:29 51°20.919 2°39.041 262.8 14 258 25.6
2011-06-20 12:17:29 51°20.871 2°38.677 263.4 14.1 258 25
2011-06-20 12:18:29 51°20.837 2°38.312 267.8 13.8 263 24.8
2011-06-20 12:19:29 51°20.797 2°37.948 262.8 13.9 258 24.3
2011-06-20 12:20:29 51°20.758 2°37.583 267.1 13.9 262 24.6
2011-06-20 12:21:29 51°20.721 2°37.218 264.1 14 261 23.5
2011-06-20 12:22:29 51°20.686 2°36.852 266.8 14 262 22.7
2011-06-20 12:23:29 51°20.647 2°36.488 263.5 14 258 22
2011-06-20 12:24:29 51°20.605 2°36.124 263.6 13.9 260 21
2011-06-20 12:25:29 51°20.574 2°35.757 268.1 14 264 23.1
2011-06-20 12:26:29 51°20.532 2°35.391 261.1 14 256 28.9
2011-06-20 12:27:29 51°20.486 2°35.027 264.1 13.9 261 31.3
2011-06-20 12:28:29 51°20.443 2°34.663 262.1 13.9 257 31.7
2011-06-20 12:29:29 51°20.393 2°34.3 262.9 14 259 31.4
2011-06-20 12:30:29 51°20.353 2°33.933 265 14.1 260 31.2
2011-06-20 12:31:29 51°20.307 2°33.568 262.7 14.1 257 31.1
2011-06-20 12:32:29 51°20.271 2°33.199 267.9 13.9 263 33.2
2011-06-20 12:33:29 51°20.229 2°32.833 261.4 14 258 31.8
2011-06-20 12:34:29 51°20.189 2°32.467 269.1 13.9 264 31.4
2011-06-20 12:35:29 51°20.166 2°32.102 267.4 13.8 261 31.5
2011-06-20 12:36:29 51°20.138 2°31.738 269.7 13.9 265 30.5
2011-06-20 12:37:29 51°20.115 2°31.373 267.6 13.8 262 25
2011-06-20 12:38:29 51°20.083 2°31.011 267.4 13.7 263 20.9
2011-06-20 12:39:29 51°20.066 2°30.652 270 13.4 266 15.7
2011-06-20 12:40:29 51°20.049 2°30.332 265.7 9.8 261 13.9
2011-06-20 12:41:29 51°20.029 2°30.123 268.1 6.9 263 12
2011-06-20 12:42:29 51°20.024 2°29.982 278.1 4.2 271 15.3
2011-06-20 12:43:29 51°20.02 2°29.923 257 0.6 229 13.6
2011-06-20 12:44:33 51°20.016 2°29.923 244.3 0.2 189 -999
2011-06-20 12:45:31 51°20.012 2°29.921 237.6 0.3 208 14.1
2011-06-20 12:46:29 51°20.007 2°29.917 234.9 0.3 212 14.6
2011-06-20 12:47:29 51°20.002 2°29.912 234.5 0.4 217 14.9
2011-06-20 12:48:29 51°19.996 2°29.908 233.4 0.4 200 15.1
2011-06-20 12:49:29 51°19.989 2°29.904 231.7 0.4 211 15.3
2011-06-20 12:50:30 51°19.966 2°29.872 224.8 3.5 220 14.5
2011-06-20 12:51:29 51°19.884 2°29.767 220 9.3 219 15.5
2011-06-20 12:52:29 51°19.735 2°29.567 222.9 13.2 222 21
2011-06-20 12:53:29 51°19.575 2°29.322 223.5 13.4 224 26.3
2011-06-20 12:54:29 51°19.407 2°29.09 220.6 13.4 221 30.4
2011-06-20 12:55:30 51°19.239 2°28.852 223.3 13.2 223 30.8
2011-06-20 12:56:30 51°19.072 2°28.62 220.4 13.4 221 32.3
2011-06-20 12:57:29 51°18.906 2°28.393 221.5 13.3 222 32.8
2011-06-20 12:58:28 51°18.746 2°28.159 222.7 13.5 225 32.9
2011-06-20 12:59:29 51°18.577 2°27.922 222.9 13.4 221 33.1
2011-06-20 13:00:30 51°18.409 2°27.684 221.1 13.4 222 33.6
2011-06-20 13:01:29 51°18.246 2°27.453 221.7 13.2 218 33.7
2011-06-20 13:02:29 51°18.08 2°27.22 222.4 13.4 221 33.9
2011-06-20 13:03:30 51°17.909 2°26.986 221.4 13.3 220 33.9
2011-06-20 13:04:29 51°17.744 2°26.76 224.1 13.1 223 33.9
2011-06-20 13:05:30 51°17.581 2°26.516 224.4 13 223 33.9
2011-06-20 13:06:29 51°17.417 2°26.29 221.7 13.2 219 34
2011-06-20 13:07:29 51°17.253 2°26.056 222.9 13.1 223 33.4
2011-06-20 13:08:29 51°17.084 2°25.836 215.5 13.1 213 33.3
2011-06-20 13:09:30 51°16.879 2°25.715 196.8 13 196 32.7
2011-06-20 13:10:29 51°16.678 2°25.616 198.3 12.3 197 30
2011-06-20 13:11:29 51°16.499 2°25.523 201.9 10.1 201 26.1
2011-06-20 13:12:28 51°16.376 2°25.451 203 6.6 200 23.3
2011-06-20 13:13:30 51°16.287 2°25.463 158.4 4.5 149 19.1
2011-06-20 13:14:28 51°16.239 2°25.546 130.1 4.5 125 14.3
2011-06-20 13:15:30 51°16.206 2°25.642 119 3.5 116 13.9
2011-06-20 13:16:29 51°16.189 2°25.713 108.1 2.5 108 11.2
2011-06-20 13:17:29 51°16.181 2°25.76 107.1 1.2 110 13.7
2011-06-20 13:18:30 51°16.179 2°25.775 111.3 0.3 87 13.1
2011-06-20 13:19:29 51°16.178 2°25.788 116.2 0.6 92 11.6
2011-06-20 13:20:30 51°16.176 2°25.808 118.4 0.8 94 12.1
2011-06-20 13:21:30 51°16.173 2°25.829 127.3 0.8 99 13
2011-06-20 13:22:30 51°16.134 2°25.93 126.5 8.3 122 12.1
2011-06-20 13:23:30 51°16.081 2°26.201 94.6 12.6 93 12.1
2011-06-20 13:24:29 51°16.114 2°26.554 75 14.1 74 12.9
2011-06-20 13:25:30 51°16.172 2°26.923 78.6 14 78 14.3
2011-06-20 13:26:30 51°16.2 2°27.29 85 13.9 85 20.8
2011-06-20 13:27:30 51°16.216 2°27.653 86.3 13.7 86 26.2
2011-06-20 13:28:29 51°16.24 2°28.001 81.9 13.4 83 28.7
2011-06-20 13:29:30 51°16.26 2°28.359 90.8 13.4 93 30.3
2011-06-20 13:30:28 51°16.262 2°28.703 87.4 13.3 87 30.3
2011-06-20 13:31:30 51°16.267 2°29.068 87.6 13.4 88 30.5
2011-06-20 13:32:29 51°16.276 2°29.415 88.3 13.3 88 30.4
2011-06-20 13:33:30 51°16.28 2°29.775 87.7 13.4 88 30.8
2011-06-20 13:34:30 51°16.279 2°30.131 91.4 13.6 92 30.3
2011-06-20 13:35:30 51°16.28 2°30.49 88.8 13.5 88 30.8
2011-06-20 13:36:29 51°16.294 2°30.844 87.7 13.6 89 30.2
2011-06-20 13:37:28 51°16.293 2°31.2 90.9 13.6 91 30.6
2011-06-20 13:38:30 51°16.295 2°31.572 90.5 13.6 90 30.2
2011-06-20 13:39:28 51°16.307 2°31.923 86.2 13.7 86 29.3
2011-06-20 13:40:29 51°16.321 2°32.293 89.4 13.8 89 28.2
2011-06-20 13:41:28 51°16.323 2°32.654 90.9 13.8 89 27.9
2011-06-20 13:42:30 51°16.336 2°33.034 86.7 13.9 86 23.1
2011-06-20 13:43:28 51°16.35 2°33.395 85.8 14.1 86 13.4
2011-06-20 13:44:29 51°16.376 2°33.775 82.6 14.3 83 11.4
2011-06-20 13:45:30 51°16.397 2°34.161 87.7 14.5 88 12.6
2011-06-20 13:46:28 51°16.417 2°34.527 82.5 14.2 81 14.8
2011-06-20 13:47:29 51°16.457 2°34.906 79.9 14.2 80 19.3
2011-06-20 13:48:29 51°16.489 2°35.275 84.5 13.9 84 27
2011-06-20 13:49:29 51°16.525 2°35.639 80.2 13.8 79 29
2011-06-20 13:50:29 51°16.557 2°36.001 86.8 13.7 86 28.8
2011-06-20 13:51:29 51°16.578 2°36.345 85.1 12.3 83 29.2
2011-06-20 13:52:29 51°16.608 2°36.598 73.8 6.6 72 28.9
2011-06-20 13:53:29 51°16.625 2°36.701 99.1 2.2 90 28.6
2011-06-20 13:54:29 51°16.625 2°36.732 130.7 0.7 78 28.9
2011-06-20 13:55:29 51°16.628 2°36.75 146.9 0.7 83 29.1
2011-06-20 13:56:29 51°16.628 2°36.767 158.8 0.7 82 29.2
2011-06-20 13:57:29 51°16.63 2°36.786 169.6 0.7 83 29.1
2011-06-20 13:58:29 51°16.631 2°36.804 179.1 0.7 82 29.1
2011-06-20 13:59:29 51°16.633 2°36.823 187.7 0.7 83 29.1
2011-06-20 14:00:29 51°16.622 2°36.838 191 2.4 171 28.9
2011-06-20 14:01:29 51°16.507 2°36.852 183 10.4 180 29.1
2011-06-20 14:02:29 51°16.307 2°36.884 172.5 12.7 169 29.7
2011-06-20 14:03:29 51°16.099 2°36.951 175 12.7 173 25.3
2011-06-20 14:04:29 51°15.889 2°36.983 178.4 12.7 173 17.5
2011-06-20 14:05:29 51°15.68 2°37.035 175.3 12.8 170 14.9
2011-06-20 14:06:29 51°15.468 2°37.091 176.5 12.9 172 16.2
2011-06-20 14:07:29 51°15.258 2°37.136 177.9 12.7 171 16.6
2011-06-20 14:08:29 51°15.05 2°37.203 173.6 12.7 166 13.9
2011-06-20 14:09:29 51°14.841 2°37.26 179.2 12.6 171 13.7
2011-06-20 14:10:29 51°14.632 2°37.323 175.1 13 168 13.5
2011-06-20 14:11:29 51°14.423 2°37.388 175.4 12.6 167 14.9
2011-06-20 14:12:29 51°14.216 2°37.46 175 12.4 169 18.1
2011-06-20 14:13:29 51°14.01 2°37.518 176.6 12.6 170 23
2011-06-20 14:14:29 51°13.803 2°37.579 175.9 12.6 171 20.1
2011-06-20 14:15:29 51°13.598 2°37.588 191.9 12.4 185 12.5
2011-06-20 14:16:29 51°13.392 2°37.556 188.5 12.6 182 12.3
2011-06-20 14:17:29 51°13.184 2°37.533 191 12.5 185 13.3
2011-06-20 14:18:29 51°12.98 2°37.476 196.4 12.4 191 14.1
2011-06-20 14:19:30 51°12.775 2°37.416 195.8 12.3 189 14.3
2011-06-20 14:20:29 51°12.576 2°37.371 193.7 12.2 189 14.3
2011-06-20 14:21:30 51°12.371 2°37.331 192.4 12.1 188 14.2
2011-06-20 14:22:29 51°12.187 2°37.231 207.7 11.9 201 14.1
2011-06-20 14:23:30 51°11.998 2°37.118 204.6 11.8 201 14.3
2011-06-20 14:24:29 51°11.813 2°37.014 202.5 12 196 14.7
2011-06-20 14:25:30 51°11.618 2°36.924 201.8 11.9 197 15.3
2011-06-20 14:26:29 51°11.437 2°36.814 205.2 11.8 198 15.6
2011-06-20 14:27:28 51°11.252 2°36.724 201.5 11.8 197 15.7
2011-06-20 14:28:29 51°11.065 2°36.617 206 11.7 199 15.5
2011-06-20 14:29:28 51°10.886 2°36.51 204 11.7 200 15
2011-06-20 14:30:29 51°10.696 2°36.419 200.3 11.8 196 14.3
2011-06-20 14:31:28 51°10.51 2°36.347 196.3 12 191 13.3
2011-06-20 14:32:29 51°10.313 2°36.297 189.4 12 182 14.6
2011-06-20 14:33:29 51°10.112 2°36.313 174.1 12.2 163 20.9
2011-06-20 14:34:29 51°9.986 2°36.582 115.9 14 105 21.3
2011-06-20 14:35:30 51°9.973 2°36.964 89.6 14.6 84 20.9
2011-06-20 14:36:29 51°10.022 2°37.334 75.9 14.6 74 20.7
2011-06-20 14:37:30 51°10.104 2°37.705 72.1 14.6 70 20.5
2011-06-20 14:38:29 51°10.18 2°38.066 75 14.6 73 19.5
2011-06-20 14:39:29 51°10.242 2°38.438 76.9 14.6 75 18.9
2011-06-20 14:40:28 51°10.321 2°38.799 69.7 14.7 68 18.9
2011-06-20 14:41:29 51°10.41 2°39.169 72.5 14.8 72 18.4
2011-06-20 14:42:30 51°10.482 2°39.547 72.7 14.7 70 17.8
2011-06-20 14:43:29 51°10.575 2°39.901 71 14.8 70 17.4
2011-06-20 14:44:29 51°10.643 2°40.274 75.3 14.6 73 16.7
2011-06-20 14:45:30 51°10.734 2°40.641 68.2 14.6 68 16.1
2011-06-20 14:46:29 51°10.817 2°40.996 70.6 14.5 69 15.9
2011-06-20 14:47:29 51°10.905 2°41.355 72.9 14.5 72 15.7
2011-06-20 14:48:28 51°10.962 2°41.644 75 8.8 72 15.6
2011-06-20 14:49:28 51°11.01 2°41.831 59.6 6.3 60 15.7
2011-06-20 14:50:29 51°11.053 2°41.933 47.6 3.8 55 15.6
2011-06-20 14:51:28 51°11.077 2°41.998 69.2 1.5 63 15.7
2011-06-20 14:52:33 51°11.084 2°42.019 74.3 0.8 65 -999
2011-06-20 14:53:31 51°11.091 2°42.038 76.6 0.9 63 15.7
2011-06-20 14:54:29 51°11.097 2°42.06 83.1 0.9 70 15.7
2011-06-20 14:55:29 51°11.105 2°42.085 90.9 1 64 15.6
2011-06-20 14:56:29 51°11.11 2°42.147 98.1 4.9 90 15.7
2011-06-20 14:57:29 51°11.115 2°42.382 90.3 11.7 86 16
2011-06-20 14:58:29 51°11.153 2°42.736 81.4 14.3 79 15.6
2011-06-20 14:59:29 51°11.196 2°43.109 81.2 14.4 78 16
2011-06-20 15:00:29 51°11.267 2°43.474 73 14.5 71 15.9
2011-06-20 15:01:29 51°11.325 2°43.845 79.9 14.5 77 15.9
2011-06-20 15:02:29 51°11.395 2°44.216 72.3 14.5 70 15.7
2011-06-20 15:03:29 51°11.469 2°44.582 76.5 14.6 74 15.8
2011-06-20 15:04:29 51°11.535 2°44.953 74.5 14.5 71 16
2011-06-20 15:05:28 51°11.612 2°45.312 75.6 14.6 73 15.9
2011-06-20 15:06:29 51°11.678 2°45.687 74.2 14.5 71 15.8
2011-06-20 15:07:29 51°11.755 2°46.052 75 14.6 72 15.8
2011-06-20 15:08:29 51°11.838 2°46.414 71.9 14.6 69 15.7
2011-06-20 15:09:29 51°11.932 2°46.768 66.1 14.6 63 15.8
2011-06-20 15:10:29 51°12.039 2°47.116 65.6 14.7 64 15.7
2011-06-20 15:11:29 51°12.137 2°47.473 70.9 14.6 67 15.5
2011-06-20 15:12:28 51°12.229 2°47.825 67.4 14.6 64 15.5
2011-06-20 15:13:29 51°12.348 2°48.17 64.3 14.6 63 15.4
2011-06-20 15:14:29 51°12.452 2°48.522 68 14.6 65 15.1
2011-06-20 15:15:29 51°12.561 2°48.869 65.5 14.7 64 15
2011-06-20 15:16:28 51°12.658 2°49.217 68.4 14.6 66 14.9
2011-06-20 15:17:28 51°12.766 2°49.564 67.7 14.6 65 14.5
2011-06-20 15:18:29 51°12.869 2°49.92 64.7 14.5 61 14.3
2011-06-20 15:19:29 51°12.993 2°50.251 62 14.6 60 14.1
2011-06-20 15:20:29 51°13.117 2°50.585 61.4 14.6 59 13.9
2011-06-20 15:21:29 51°13.23 2°50.928 66 14.7 63 13.8
2011-06-20 15:22:28 51°13.347 2°51.261 60.2 14.6 58 13.7
2011-06-20 15:23:29 51°13.471 2°51.601 65.6 14.5 63 13.7
2011-06-20 15:24:29 51°13.594 2°51.933 58.7 14.6 57 13.7
2011-06-20 15:25:28 51°13.715 2°52.259 64.5 14.6 61 13.5
2011-06-20 15:26:29 51°13.847 2°52.591 56.5 14.5 53 13
2011-06-20 15:27:30 51°13.992 2°52.911 58.9 14.8 56 13.2
2011-06-20 15:28:28 51°14.126 2°53.223 55.9 14.7 53 12.7
2011-06-20 15:29:29 51°14.268 2°53.531 57.1 13.6 55 12.8
2011-06-20 15:30:29 51°14.389 2°53.828 61.8 13.1 58 12.5
2011-06-20 15:31:29 51°14.49 2°54.113 64.4 12 61 12.6
2011-06-20 15:32:29 51°14.575 2°54.399 73.3 10.6 68 12.9
2011-06-20 15:33:29 51°14.631 2°54.639 77.9 9.2 72 13.3
2011-06-20 15:34:29 51°14.618 2°54.877 127.6 9.9 116 14.6
2011-06-20 15:35:29 51°14.504 2°55.076 149.7 10.6 147 13.9
2011-06-20 15:36:30 51°14.354 2°55.225 148.5 10.2 148 13.4
2011-06-20 15:37:30 51°14.224 2°55.344 151.5 8 152 -999
2011-06-20 15:38:30 51°14.115 2°55.428 156.7 6.7 156 13.7
2011-06-20 15:39:29 51°14.028 2°55.488 157.4 5.1 156 13.9
2011-06-20 15:40:29 51°13.953 2°55.54 157.5 4.9 156 13.9
2011-06-20 15:41:29 51°13.879 2°55.592 158.2 4.8 156 13.7
2011-06-20 15:42:28 51°13.809 2°55.648 149.7 4.5 148 13.7
2011-06-20 15:43:30 51°13.757 2°55.72 133.5 3.7 132 12.9
2011-06-20 15:44:29 51°13.72 2°55.788 131.7 3.2 130 15.2
2011-06-20 15:45:30 51°13.692 2°55.842 131.5 1.6 131 12.8
2011-06-20 15:46:29 51°13.687 2°55.845 127.8 0.3 284 12.3
2011-06-20 15:47:30 51°13.688 2°55.84 132.9 0.2 287 12.6
2011-06-20 15:48:29 51°13.67 2°55.871 132.6 4 131 12.8
2011-06-20 15:49:29 51°13.639 2°55.955 105.9 3 104 13.3
2011-06-20 15:50:29 51°13.635 2°56.012 101.2 1 97 10.4